Seabourn Spirit — C6FR4 — position and weather

sailwx.info

Track history (hours):
 
Tides and Currents Weather Stations Pressure Air Temp Water Temp Dewpoint Dewpoint Depression Visibility Wind Speed Wind Dir Waves Ship Positions

Seabourn Spirit

Operator: Cunard Seabourn

Last reported at 2019-Apr-10 20:59 UTC. Time now 2019-Apr-24 22:40 UTC.
Position N 14°01' W 061°01'.
Warning: this ship's position is 14 days out of date.

Length 133 m; draft 5.5 m.

Type: Ship. MMSI: 311083000.

Date/timePositionNaut miles runAvg speedWind from/ knotsBaromVisibWave heightAir tempDewpointWater temp
2019-Apr-10 20:59N 14°01' W 061°01'2 0.2
2019-Apr-10 11:44N 14°01' W 060°60'5 3.4
2019-Apr-10 10:07N 14°05' W 061°03'111.8
2019-Apr-10 10:01N 14°05' W 061°02'4 0.2
2019-Apr-09 10:32N 14°05' W 060°58'0 1.4
2019-Apr-09 10:20N 14°05' W 060°58'2 5.3
2019-Apr-09 10:01N 14°06' W 060°60'4 5.8
2019-Apr-09 09:17N 14°09' W 061°03'2 5.6
2019-Apr-09 09:00N 14°10' W 061°04'3 5.7
2019-Apr-09 08:30N 14°12' W 061°07'3 6.2
2019-Apr-09 08:00N 14°14' W 061°09'3 5.6
2019-Apr-09 07:30N 14°16' W 061°10'2 3.4
2019-Apr-09 07:00N 14°18' W 061°11'2 4.0
2019-Apr-09 06:30N 14°20' W 061°12'3 6.0
2019-Apr-09 06:00N 14°23' W 061°12'3 6.2
2019-Apr-09 05:28N 14°26' W 061°12'3 7.0
2019-Apr-09 05:00N 14°29' W 061°11'2 4.0
2019-Apr-09 04:30N 14°31' W 061°10'2 3.6
2019-Apr-09 04:00N 14°32' W 061°09'2 3.9
2019-Apr-09 03:30N 14°34' W 061°07'3 5.8
2019-Apr-09 03:00N 14°35' W 061°05'1 1.3
2019-Apr-09 02:05N 14°33' W 061°04'0 0.0
2019-Apr-09 01:29N 14°33' W 061°04'0 0.0
2019-Apr-08 23:38N 14°33' W 061°04'0 0.0
2019-Apr-08 23:26N 14°33' W 061°04'0 0.0
2019-Apr-08 22:40N 14°33' W 061°04'0 0.0
2019-Apr-08 22:23N 14°33' W 061°04'0 0.0
2019-Apr-08 19:47N 14°33' W 061°04'0 0.0
2019-Apr-08 18:29N 14°33' W 061°04'30 2.7
2019-Apr-08 07:27N 14°10' W 060°45'  
2019-Apr-05 22:30N 14°04' W 061°04'510.8
2019-Apr-05 22:00N 14°05' W 060°58'0 0.0
2019-Apr-05 10:30N 14°05' W 060°58'6 7.4
2019-Apr-05 09:40N 14°10' W 061°03'1 7.1
2019-Apr-05 09:30N 14°10' W 061°04'4 6.6
2019-Apr-05 08:55N 14°13' W 061°06'3 6.5
2019-Apr-05 08:30N 14°15' W 061°08'3 5.8
2019-Apr-05 08:00N 14°17' W 061°10'3 5.8
2019-Apr-05 07:30N 14°19' W 061°13'3 5.8
2019-Apr-05 07:00N 14°21' W 061°15'3 5.5
2019-Apr-05 06:30N 14°23' W 061°17'3 5.7
2019-Apr-05 06:00N 14°26' W 061°18'4 6.0
2019-Apr-05 05:25N 14°29' W 061°20'2 5.9
2019-Apr-05 05:00N 14°31' W 061°21'3 5.8
2019-Apr-05 04:31N 14°34' W 061°22'3 6.0
2019-Apr-05 04:01N 14°37' W 061°23'3 6.1
2019-Apr-05 03:31N 14°39' W 061°24'4 6.2
2019-Apr-05 02:49N 14°43' W 061°26'2 6.1
2019-Apr-05 02:27N 14°45' W 061°27'  
2019-Apr-02 08:20N 16°59' W 062°37'3 8.5
2019-Apr-02 07:56N 17°01' W 062°39'4 8.8
2019-Apr-02 07:28N 17°04' W 062°42'11 9.0
2019-Apr-02 06:14N 17°12' W 062°51'4 9.0
2019-Apr-02 05:49N 17°14' W 062°54'3 8.6
2019-Apr-02 05:28N 17°16' W 062°56'7 8.7
2019-Apr-02 04:37N 17°22' W 063°01'5 8.7
2019-Apr-02 04:03N 17°26' W 063°04'1 8.8
2019-Apr-02 03:56N 17°27' W 063°04'5 8.9
2019-Apr-02 03:25N 17°32' W 063°06'4 9.1
2019-Apr-02 03:00N 17°35' W 063°07'5 9.1
2019-Apr-02 02:30N 17°40' W 063°09'5 9.0
2019-Apr-02 01:56N 17°44' W 063°10'4 9.0
2019-Apr-02 01:28N 17°49' W 063°11'4 9.1
2019-Apr-02 01:00N 17°53' W 063°11'5 9.3
2019-Apr-02 00:30N 17°57' W 063°13'5 9.4
2019-Apr-02 00:00N 18°02' W 063°14'6 9.4
2019-Apr-01 23:24N 18°07' W 063°15'4 8.2
2019-Apr-01 22:57N 18°11' W 063°13'5 9.4
2019-Apr-01 22:27N 18°13' W 063°09'3 0.6
2019-Apr-01 18:07N 18°12' W 063°06'0 0.0
2019-Apr-01 17:52N 18°12' W 063°06'0 0.0
2019-Apr-01 16:58N 18°12' W 063°06'0 0.0
2019-Apr-01 16:01N 18°12' W 063°06'0 0.0
2019-Apr-01 15:40N 18°12' W 063°06'0 0.0
2019-Apr-01 14:25N 18°12' W 063°06'0 0.0
2019-Apr-01 13:58N 18°12' W 063°06'0 0.0
2019-Apr-01 12:43N 18°12' W 063°06'0 0.0
2019-Apr-01 08:22N 18°12' W 063°06'0 0.0
2019-Apr-01 07:25N 18°12' W 063°06'0 0.0
2019-Apr-01 06:52N 18°12' W 063°06'0 0.1
2019-Apr-01 06:22N 18°12' W 063°06'0 0.0
2019-Apr-01 05:06N 18°12' W 063°06'0 0.0
2019-Apr-01 04:09N 18°12' W 063°06'0 0.0
2019-Apr-01 03:55N 18°12' W 063°06'0 0.0
2019-Apr-01 03:22N 18°12' W 063°06'0 0.1
2019-Apr-01 02:57N 18°12' W 063°06'0 0.0
2019-Apr-01 02:25N 18°12' W 063°06'0 0.0
2019-Apr-01 01:55N 18°12' W 063°06'0 0.1
2019-Apr-01 01:25N 18°12' W 063°06'3 3.1
2019-Apr-01 00:32N 18°14' W 063°09'311.3
2019-Apr-01 00:14N 18°12' W 063°12'312.1
2019-Mar-31 23:59N 18°09' W 063°14'611.3
2019-Mar-31 23:29N 18°04' W 063°14'611.2
2019-Mar-31 22:58N 18°00' W 063°10'611.5
2019-Mar-31 22:26N 18°01' W 063°03'0 0.5
2019-Mar-31 21:41N 18°01' W 063°03'0 0.0
2019-Mar-31 21:26N 18°01' W 063°03'  
Track history (hours):
 
Tides and Currents Weather Stations Pressure Air Temp Water Temp Dewpoint Dewpoint Depression Visibility Wind Speed Wind Dir Waves Ship Positions

Seabourn Spirit

Operator: Cunard Seabourn

Last reported at 2019-Apr-10 20:59 UTC. Time now 2019-Apr-24 22:40 UTC.
Position N 14°01' W 061°01'.
Warning: this ship's position is 14 days out of date.

Length 133 m; draft 5.5 m.

Type: Ship. MMSI: 311083000.

Date/timePositionNaut miles runAvg speedWind from/ knotsBaromVisibWave heightAir tempDewpointWater temp
2019-Apr-10 20:59N 14°01' W 061°01'2 0.2
2019-Apr-10 11:44N 14°01' W 060°60'5 3.4
2019-Apr-10 10:07N 14°05' W 061°03'111.8
2019-Apr-10 10:01N 14°05' W 061°02'4 0.2
2019-Apr-09 10:32N 14°05' W 060°58'0 1.4
2019-Apr-09 10:20N 14°05' W 060°58'2 5.3
2019-Apr-09 10:01N 14°06' W 060°60'4 5.8
2019-Apr-09 09:17N 14°09' W 061°03'2 5.6
2019-Apr-09 09:00N 14°10' W 061°04'3 5.7
2019-Apr-09 08:30N 14°12' W 061°07'3 6.2
2019-Apr-09 08:00N 14°14' W 061°09'3 5.6
2019-Apr-09 07:30N 14°16' W 061°10'2 3.4
2019-Apr-09 07:00N 14°18' W 061°11'2 4.0
2019-Apr-09 06:30N 14°20' W 061°12'3 6.0
2019-Apr-09 06:00N 14°23' W 061°12'3 6.2
2019-Apr-09 05:28N 14°26' W 061°12'3 7.0
2019-Apr-09 05:00N 14°29' W 061°11'2 4.0
2019-Apr-09 04:30N 14°31' W 061°10'2 3.6
2019-Apr-09 04:00N 14°32' W 061°09'2 3.9
2019-Apr-09 03:30N 14°34' W 061°07'3 5.8
2019-Apr-09 03:00N 14°35' W 061°05'1 1.3
2019-Apr-09 02:05N 14°33' W 061°04'0 0.0
2019-Apr-09 01:29N 14°33' W 061°04'0 0.0
2019-Apr-08 23:38N 14°33' W 061°04'0 0.0
2019-Apr-08 23:26N 14°33' W 061°04'0 0.0
2019-Apr-08 22:40N 14°33' W 061°04'0 0.0
2019-Apr-08 22:23N 14°33' W 061°04'0 0.0
2019-Apr-08 19:47N 14°33' W 061°04'0 0.0
2019-Apr-08 18:29N 14°33' W 061°04'30 2.7
2019-Apr-08 07:27N 14°10' W 060°45'  
2019-Apr-05 22:30N 14°04' W 061°04'510.8
2019-Apr-05 22:00N 14°05' W 060°58'0 0.0
2019-Apr-05 10:30N 14°05' W 060°58'6 7.4
2019-Apr-05 09:40N 14°10' W 061°03'1 7.1
2019-Apr-05 09:30N 14°10' W 061°04'4 6.6
2019-Apr-05 08:55N 14°13' W 061°06'3 6.5
2019-Apr-05 08:30N 14°15' W 061°08'3 5.8
2019-Apr-05 08:00N 14°17' W 061°10'3 5.8
2019-Apr-05 07:30N 14°19' W 061°13'3 5.8
2019-Apr-05 07:00N 14°21' W 061°15'3 5.5
2019-Apr-05 06:30N 14°23' W 061°17'3 5.7
2019-Apr-05 06:00N 14°26' W 061°18'4 6.0
2019-Apr-05 05:25N 14°29' W 061°20'2 5.9
2019-Apr-05 05:00N 14°31' W 061°21'3 5.8
2019-Apr-05 04:31N 14°34' W 061°22'3 6.0
2019-Apr-05 04:01N 14°37' W 061°23'3 6.1
2019-Apr-05 03:31N 14°39' W 061°24'4 6.2
2019-Apr-05 02:49N 14°43' W 061°26'2 6.1
2019-Apr-05 02:27N 14°45' W 061°27'  
2019-Apr-02 08:20N 16°59' W 062°37'3 8.5
2019-Apr-02 07:56N 17°01' W 062°39'4 8.8
2019-Apr-02 07:28N 17°04' W 062°42'11 9.0
2019-Apr-02 06:14N 17°12' W 062°51'4 9.0
2019-Apr-02 05:49N 17°14' W 062°54'3 8.6
2019-Apr-02 05:28N 17°16' W 062°56'7 8.7
2019-Apr-02 04:37N 17°22' W 063°01'5 8.7
2019-Apr-02 04:03N 17°26' W 063°04'1 8.8
2019-Apr-02 03:56N 17°27' W 063°04'5 8.9
2019-Apr-02 03:25N 17°32' W 063°06'4 9.1
2019-Apr-02 03:00N 17°35' W 063°07'5 9.1
2019-Apr-02 02:30N 17°40' W 063°09'5 9.0
2019-Apr-02 01:56N 17°44' W 063°10'4 9.0
2019-Apr-02 01:28N 17°49' W 063°11'4 9.1
2019-Apr-02 01:00N 17°53' W 063°11'5 9.3
2019-Apr-02 00:30N 17°57' W 063°13'5 9.4
2019-Apr-02 00:00N 18°02' W 063°14'6 9.4
2019-Apr-01 23:24N 18°07' W 063°15'4 8.2
2019-Apr-01 22:57N 18°11' W 063°13'5 9.4
2019-Apr-01 22:27N 18°13' W 063°09'3 0.6
2019-Apr-01 18:07N 18°12' W 063°06'0 0.0
2019-Apr-01 17:52N 18°12' W 063°06'0 0.0
2019-Apr-01 16:58N 18°12' W 063°06'0 0.0
2019-Apr-01 16:01N 18°12' W 063°06'0 0.0
2019-Apr-01 15:40N 18°12' W 063°06'0 0.0
2019-Apr-01 14:25N 18°12' W 063°06'0 0.0
2019-Apr-01 13:58N 18°12' W 063°06'0 0.0
2019-Apr-01 12:43N 18°12' W 063°06'0 0.0
2019-Apr-01 08:22N 18°12' W 063°06'0 0.0
2019-Apr-01 07:25N 18°12' W 063°06'0 0.0
2019-Apr-01 06:52N 18°12' W 063°06'0 0.1
2019-Apr-01 06:22N 18°12' W 063°06'0 0.0
2019-Apr-01 05:06N 18°12' W 063°06'0 0.0
2019-Apr-01 04:09N 18°12' W 063°06'0 0.0
2019-Apr-01 03:55N 18°12' W 063°06'0 0.0
2019-Apr-01 03:22N 18°12' W 063°06'0 0.1
2019-Apr-01 02:57N 18°12' W 063°06'0 0.0
2019-Apr-01 02:25N 18°12' W 063°06'0 0.0
2019-Apr-01 01:55N 18°12' W 063°06'0 0.1
2019-Apr-01 01:25N 18°12' W 063°06'3 3.1
2019-Apr-01 00:32N 18°14' W 063°09'311.3
2019-Apr-01 00:14N 18°12' W 063°12'312.1
2019-Mar-31 23:59N 18°09' W 063°14'611.3
2019-Mar-31 23:29N 18°04' W 063°14'611.2
2019-Mar-31 22:58N 18°00' W 063°10'611.5
2019-Mar-31 22:26N 18°01' W 063°03'0 0.5
2019-Mar-31 21:41N 18°01' W 063°03'0 0.0
2019-Mar-31 21:26N 18°01' W 063°03'  

Dump ship's entire track history